Time;durP1;ratioP1;P1;durP2;ratioP2;P2;SDS_P1;SDS_P2;PMS_P1;PMS_P2;Temp;Humidity;BMP_temperature;BMP_pressure;BME280_temperature;BME280_humidity;BME280_pressure;Samples;Min_cycle;Max_cycle;Signal;HPM_P1;HPM_P2
2021/03/29 00:00:37;;;;;;;16.70;7.03;;;17.80;57.00;;;;;;4997876;28;20191;-81
2021/03/29 00:03:03;;;;;;;14.73;6.70;;;17.80;57.10;;;;;;4981776;28;20213;-81
2021/03/29 00:05:31;;;;;;;15.95;6.78;;;17.80;57.10;;;;;;4981952;28;20665;-81
2021/03/29 00:08:12;;;;;;;13.63;7.18;;;17.80;56.80;;;;;;4981264;28;20217;-81
2021/03/29 00:10:40;;;;;;;11.93;6.35;;;17.80;56.90;;;;;;5000196;28;20611;-81
2021/03/29 00:13:06;;;;;;;14.57;7.07;;;17.80;56.60;;;;;;4998235;28;20151;-81
2021/03/29 00:15:36;;;;;;;12.35;7.20;;;17.80;56.70;;;;;;4998186;28;20183;-81
2021/03/29 00:18:05;;;;;;;13.00;7.18;;;17.80;56.60;;;;;;4981500;28;20618;-81
2021/03/29 00:20:32;;;;;;;18.08;7.10;;;17.80;56.90;;;;;;5015475;28;20167;-81
2021/03/29 00:22:58;;;;;;;11.30;6.75;;;17.80;56.80;;;;;;4997867;28;20225;-81
2021/03/29 00:25:24;;;;;;;12.32;6.50;;;17.80;56.80;;;;;;4981518;28;20206;-81
2021/03/29 00:27:51;;;;;;;13.27;6.30;;;17.80;56.90;;;;;;4997783;28;20152;-81
2021/03/29 00:30:21;;;;;;;12.75;7.13;;;17.80;56.80;;;;;;4997980;28;20156;-81
2021/03/29 00:32:55;;;;;;;13.98;6.40;;;17.80;56.80;;;;;;4981271;28;20167;-81
2021/03/29 00:35:22;;;;;;;14.07;6.55;;;17.80;57.00;;;;;;4997727;28;20163;-81
2021/03/29 00:37:58;;;;;;;13.68;6.70;;;17.70;56.90;;;;;;4997522;28;20214;-81
2021/03/29 00:40:24;;;;;;;13.43;7.03;;;17.80;56.70;;;;;;4981662;28;20281;-81
2021/03/29 00:43:00;;;;;;;11.25;6.63;;;17.80;57.00;;;;;;4997406;28;20156;-81
2021/03/29 00:45:27;;;;;;;11.18;6.57;;;17.70;56.70;;;;;;5015068;28;20253;-81
2021/03/29 00:47:54;;;;;;;16.25;6.90;;;17.70;56.80;;;;;;4997455;28;20595;-81
2021/03/29 00:50:53;;;;;;;12.20;6.20;;;17.70;56.90;;;;;;4997411;28;20163;-81
2021/03/29 00:53:20;;;;;;;12.13;6.63;;;17.70;56.70;;;;;;4997274;28;20182;-81
2021/03/29 00:55:48;;;;;;;12.15;6.78;;;17.70;56.90;;;;;;4997576;28;20179;-81
2021/03/29 00:58:15;;;;;;;14.77;6.72;;;17.70;56.80;;;;;;4997012;28;20151;-81
2021/03/29 01:00:49;;;;;;;14.32;6.43;;;17.70;56.80;;;;;;4980598;28;20167;-81
2021/03/29 01:03:35;;;;;;;15.82;6.63;;;17.70;56.90;;;;;;4980641;28;20164;-81
2021/03/29 01:06:07;;;;;;;15.25;6.50;;;17.70;56.80;;;;;;4978667;28;20202;-81
2021/03/29 01:08:35;;;;;;;13.07;6.47;;;17.70;56.80;;;;;;4980471;28;20182;-81
2021/03/29 01:11:04;;;;;;;13.00;6.63;;;17.70;56.80;;;;;;4980566;28;20167;-81
2021/03/29 01:13:35;;;;;;;14.15;6.68;;;17.70;57.00;;;;;;4996786;28;20159;-81
2021/03/29 01:16:01;;;;;;;10.77;6.30;;;17.70;57.00;;;;;;4997036;28;20615;-81
2021/03/29 01:18:36;;;;;;;12.98;7.13;;;17.70;57.00;;;;;;4999405;28;20209;-81
2021/03/29 01:21:43;;;;;;;15.07;6.55;;;17.70;56.90;;;;;;5000826;28;20165;-81
2021/03/29 01:24:44;;;;;;;12.98;6.32;;;17.70;56.90;;;;;;4957289;29;20241;-82
2021/03/29 01:27:12;;;;;;;14.25;6.70;;;17.70;56.70;;;;;;4938400;29;20192;-81
2021/03/29 01:29:57;;;;;;;11.25;6.30;;;17.70;56.80;;;;;;4922870;29;21306;-81
2021/03/29 01:32:44;;;;;;;11.95;6.50;;;17.70;56.90;;;;;;4922463;29;20614;-81
2021/03/29 01:35:32;;;;;;;11.35;6.15;;;17.70;56.80;;;;;;4922546;29;20388;-81
2021/03/29 01:38:17;;;;;;;12.25;6.70;;;17.70;56.80;;;;;;4938502;29;20245;-81
2021/03/29 01:40:43;;;;;;;14.40;6.78;;;17.70;56.90;;;;;;4922333;29;20178;-81
2021/03/29 01:43:09;;;;;;;12.20;6.50;;;17.70;56.70;;;;;;4906722;29;20193;-81
2021/03/29 01:45:36;;;;;;;12.20;6.38;;;17.70;56.50;;;;;;4922426;29;20185;-81
2021/03/29 01:48:02;;;;;;;14.27;6.32;;;17.70;56.80;;;;;;4938381;29;20736;-81
2021/03/29 01:50:30;;;;;;;12.77;6.65;;;17.70;56.50;;;;;;4922087;29;20217;-81
2021/03/29 01:52:56;;;;;;;12.27;6.40;;;17.70;56.70;;;;;;4922216;29;20173;-81
2021/03/29 01:55:23;;;;;;;13.25;6.88;;;17.70;56.70;;;;;;4922291;29;20213;-81
2021/03/29 01:57:53;;;;;;;13.43;6.20;;;17.70;56.80;;;;;;4922103;29;20171;-81
2021/03/29 02:00:29;;;;;;;10.80;6.43;;;17.70;56.70;;;;;;4956913;28;20231;-81
2021/03/29 02:03:06;;;;;;;10.65;6.05;;;17.70;56.50;;;;;;4983261;28;20266;-81
2021/03/29 02:05:32;;;;;;;11.55;6.57;;;17.70;56.80;;;;;;4999667;28;20191;-81
2021/03/29 02:07:59;;;;;;;12.55;6.57;;;17.70;56.70;;;;;;4999929;28;20563;-81
2021/03/29 02:10:27;;;;;;;10.10;6.32;;;17.70;56.70;;;;;;5000571;28;20158;-80
2021/03/29 02:12:54;;;;;;;10.13;5.90;;;17.70;56.70;;;;;;5017164;28;20162;-81
2021/03/29 02:15:26;;;;;;;10.93;6.57;;;17.60;56.70;;;;;;4983321;28;20563;-81
2021/03/29 02:17:57;;;;;;;11.93;6.75;;;17.70;56.60;;;;;;4999933;28;20148;-81
2021/03/29 02:20:30;;;;;;;13.65;6.63;;;17.70;56.60;;;;;;4999679;28;20185;-81
2021/03/29 02:22:56;;;;;;;9.82;6.50;;;17.70;56.60;;;;;;4999480;28;20222;-81
2021/03/29 02:25:24;;;;;;;11.18;6.35;;;17.60;56.60;;;;;;4983386;28;20566;-81
2021/03/29 02:27:51;;;;;;;14.35;6.43;;;17.60;56.70;;;;;;4983067;28;20678;-81
2021/03/29 02:30:19;;;;;;;13.18;6.57;;;17.60;56.90;;;;;;4998971;28;20171;-81
2021/03/29 02:32:45;;;;;;;9.77;6.07;;;17.60;56.60;;;;;;5000047;28;20156;-81
2021/03/29 02:35:12;;;;;;;11.10;6.20;;;17.70;57.40;;;;;;4983265;28;20159;-81
2021/03/29 02:37:47;;;;;;;8.65;6.10;;;17.70;56.70;;;;;;4999591;28;20163;-81
2021/03/29 02:40:14;;;;;;;11.40;6.22;;;17.70;56.60;;;;;;4983647;28;20166;-81
2021/03/29 02:42:40;;;;;;;10.68;6.40;;;17.60;56.60;;;;;;4999466;28;20504;-81
2021/03/29 02:45:07;;;;;;;14.25;6.40;;;17.70;56.70;;;;;;4999277;28;20198;-81
2021/03/29 02:47:33;;;;;;;12.48;6.63;;;17.60;56.70;;;;;;4983159;28;20247;-81
2021/03/29 02:50:00;;;;;;;10.90;6.68;;;17.60;56.70;;;;;;4999335;28;20179;-81
2021/03/29 02:52:28;;;;;;;10.20;6.10;;;17.60;56.80;;;;;;4999133;28;20158;-81
2021/03/29 02:54:54;;;;;;;13.20;6.43;;;17.60;56.70;;;;;;5016483;28;20163;-81
2021/03/29 02:57:20;;;;;;;11.05;6.55;;;17.60;56.60;;;;;;4999230;28;20158;-80
2021/03/29 02:59:46;;;;;;;14.38;6.28;;;17.60;56.60;;;;;;4998964;28;20235;-81
2021/03/29 03:02:12;;;;;;;12.52;6.43;;;17.60;56.70;;;;;;5015115;28;20206;-81
2021/03/29 03:04:37;;;;;;;10.07;6.53;;;17.60;56.70;;;;;;4983203;28;20199;-81
2021/03/29 03:07:03;;;;;;;12.00;6.63;;;17.60;56.80;;;;;;4999049;28;20155;-81
2021/03/29 03:09:30;;;;;;;11.07;6.10;;;17.60;56.80;;;;;;4982426;28;20159;-81
2021/03/29 03:11:56;;;;;;;11.57;6.25;;;17.60;56.60;;;;;;4998950;28;20190;-81
2021/03/29 03:14:21;;;;;;;12.57;6.57;;;17.60;56.50;;;;;;4998900;28;20155;-81
2021/03/29 03:16:47;;;;;;;10.38;5.93;;;17.60;56.50;;;;;;4998652;28;20638;-81
2021/03/29 03:19:13;;;;;;;11.02;5.95;;;17.60;56.60;;;;;;4998936;28;20638;-81
2021/03/29 03:21:39;;;;;;;10.50;6.30;;;17.60;56.60;;;;;;4998634;28;20523;-81
2021/03/29 03:24:07;;;;;;;10.50;6.43;;;17.60;56.70;;;;;;4982303;28;20234;-82
2021/03/29 03:26:34;;;;;;;10.98;5.93;;;17.60;56.70;;;;;;5016283;28;20159;-81
2021/03/29 03:29:01;;;;;;;8.88;5.80;;;17.60;56.70;;;;;;4998478;28;20186;-81
2021/03/29 03:31:28;;;;;;;11.27;6.43;;;17.60;56.60;;;;;;4998799;28;20152;-81
2021/03/29 03:33:54;;;;;;;13.20;6.38;;;17.60;56.70;;;;;;4981984;28;20170;-81
2021/03/29 03:36:22;;;;;;;12.50;6.90;;;17.60;56.60;;;;;;5016055;28;20173;-81
2021/03/29 03:38:50;;;;;;;11.73;6.40;;;17.60;56.70;;;;;;4982383;28;20168;-81
2021/03/29 03:41:37;;;;;;;10.88;6.10;;;17.60;56.80;;;;;;4981167;28;20322;-81
2021/03/29 03:44:03;;;;;;;11.27;6.25;;;17.60;56.60;;;;;;4998785;28;20152;-81
2021/03/29 03:46:36;;;;;;;13.10;6.45;;;17.60;56.50;;;;;;4998829;28;20206;-81
2021/03/29 03:49:21;;;;;;;10.63;5.88;;;17.60;56.70;;;;;;4999802;28;20158;-81
2021/03/29 03:51:47;;;;;;;9.25;6.28;;;17.60;56.60;;;;;;4998942;28;20155;-81
2021/03/29 03:54:13;;;;;;;7.97;5.75;;;17.60;56.50;;;;;;4983030;28;20178;-81
2021/03/29 03:56:38;;;;;;;10.40;6.30;;;17.60;56.70;;;;;;4981974;28;20163;-81
2021/03/29 03:59:05;;;;;;;10.68;6.22;;;17.60;56.60;;;;;;4998150;28;20166;-81
2021/03/29 04:01:38;;;;;;;11.27;6.60;;;17.60;56.60;;;;;;4981965;28;20255;-81
2021/03/29 04:04:04;;;;;;;14.50;6.65;;;17.60;56.50;;;;;;4997974;28;20667;-81
2021/03/29 04:06:30;;;;;;;8.77;5.35;;;17.60;56.20;;;;;;4982199;28;20171;-81
2021/03/29 04:08:56;;;;;;;12.32;6.47;;;17.70;55.30;;;;;;4981978;28;20164;-81
2021/03/29 04:11:23;;;;;;;7.70;5.65;;;17.70;55.30;;;;;;4981634;28;20164;-81
2021/03/29 04:13:49;;;;;;;10.57;5.75;;;17.80;55.40;;;;;;5015825;28;20162;-81
2021/03/29 04:16:15;;;;;;;10.65;5.97;;;17.70;55.10;;;;;;4997709;28;20250;-81
2021/03/29 04:18:40;;;;;;;10.32;5.32;;;17.70;55.00;;;;;;4997845;28;20174;-81
2021/03/29 04:21:08;;;;;;;8.82;5.22;;;17.80;54.40;;;;;;4998252;28;20658;-81
2021/03/29 04:23:34;;;;;;;9.80;5.10;;;17.90;54.30;;;;;;4997774;28;20302;-81
2021/03/29 04:26:00;;;;;;;9.07;5.85;;;17.90;53.80;;;;;;4981328;28;20290;-81
2021/03/29 04:28:25;;;;;;;8.88;5.35;;;17.90;54.40;;;;;;4982167;28;20167;-81
2021/03/29 04:30:51;;;;;;;8.35;5.63;;;17.90;54.40;;;;;;4997992;28;20163;-81
2021/03/29 04:33:19;;;;;;;8.00;5.80;;;17.90;54.50;;;;;;4997997;28;20160;-81
2021/03/29 04:35:46;;;;;;;7.15;5.38;;;17.80;54.70;;;;;;4981655;28;20186;-81
2021/03/29 04:38:12;;;;;;;8.80;5.38;;;17.80;54.70;;;;;;4981568;28;20175;-81
2021/03/29 04:40:38;;;;;;;8.85;6.10;;;17.80;54.80;;;;;;4997795;28;20160;-81
2021/03/29 04:43:03;;;;;;;9.63;5.68;;;17.80;54.90;;;;;;4998088;28;20159;-81
2021/03/29 04:45:29;;;;;;;7.55;5.13;;;17.80;54.60;;;;;;4998115;28;20654;-81
2021/03/29 04:47:56;;;;;;;8.65;5.03;;;17.80;54.60;;;;;;4981371;28;20630;-81
2021/03/29 04:50:22;;;;;;;8.27;5.70;;;17.80;54.50;;;;;;4997358;28;20163;-81
2021/03/29 04:52:49;;;;;;;8.95;5.50;;;17.70;54.90;;;;;;4981431;28;20191;-81
2021/03/29 04:55:15;;;;;;;8.45;5.28;;;17.80;54.60;;;;;;4997205;28;20163;-81
2021/03/29 04:57:44;;;;;;;7.40;5.32;;;17.80;54.30;;;;;;4997412;28;20302;-81
2021/03/29 05:00:10;;;;;;;9.77;5.40;;;17.80;54.60;;;;;;5008261;28;20176;-82
2021/03/29 05:02:36;;;;;;;8.77;5.13;;;17.70;54.40;;;;;;4997782;28;20258;-81
2021/03/29 05:05:03;;;;;;;8.05;5.32;;;17.80;54.10;;;;;;4998141;28;20322;-80
2021/03/29 05:07:30;;;;;;;8.00;5.15;;;17.90;54.10;;;;;;4998589;28;20199;-81
2021/03/29 05:09:55;;;;;;;5.85;4.55;;;17.90;54.10;;;;;;4997586;28;20151;-81
2021/03/29 05:12:24;;;;;;;6.88;5.32;;;17.80;54.00;;;;;;4983148;28;20159;-82
2021/03/29 05:14:50;;;;;;;7.07;5.10;;;17.80;54.10;;;;;;4982593;28;20171;-81
2021/03/29 05:17:16;;;;;;;8.93;5.30;;;17.90;53.90;;;;;;4965554;28;20160;-80
2021/03/29 05:19:42;;;;;;;7.95;5.18;;;17.90;53.80;;;;;;4981635;28;20655;-80
2021/03/29 05:22:08;;;;;;;7.75;5.03;;;17.90;54.00;;;;;;4982336;28;20178;-80
2021/03/29 05:24:35;;;;;;;6.38;4.80;;;17.80;53.90;;;;;;4999678;28;20233;-80
2021/03/29 05:27:00;;;;;;;10.65;5.38;;;17.80;54.10;;;;;;4985943;28;20189;-80
2021/03/29 05:29:28;;;;;;;7.45;4.75;;;17.80;54.10;;;;;;5001823;28;20160;-80
2021/03/29 05:31:57;;;;;;;7.47;5.45;;;17.80;54.00;;;;;;5002372;28;20644;-80
2021/03/29 05:34:24;;;;;;;7.05;5.18;;;17.80;54.00;;;;;;5002734;28;20614;-80
2021/03/29 05:36:51;;;;;;;5.55;4.53;;;17.80;54.10;;;;;;5001905;28;20534;-80
2021/03/29 05:39:17;;;;;;;8.57;5.05;;;17.80;53.80;;;;;;5036090;28;20155;-81
2021/03/29 05:41:43;;;;;;;8.10;5.35;;;17.80;54.20;;;;;;5001346;28;20598;-80
2021/03/29 05:44:11;;;;;;;8.57;5.13;;;17.80;54.10;;;;;;5017547;28;20236;-80
2021/03/29 05:46:38;;;;;;;8.55;5.75;;;17.70;54.10;;;;;;5017754;28;20155;-80
2021/03/29 05:49:04;;;;;;;8.98;5.15;;;17.70;54.10;;;;;;5001810;28;20148;-80
2021/03/29 05:51:31;;;;;;;6.30;4.65;;;17.70;54.00;;;;;;5002306;28;20155;-80
2021/03/29 05:53:58;;;;;;;10.82;4.97;;;17.80;53.70;;;;;;5015977;28;20186;-81
2021/03/29 05:56:24;;;;;;;7.82;4.85;;;17.80;53.60;;;;;;4983695;28;20533;-81
2021/03/29 05:59:05;;;;;;;9.32;5.45;;;17.80;53.60;;;;;;5016026;28;20155;-81
2021/03/29 06:01:44;;;;;;;6.68;4.50;;;17.80;53.80;;;;;;4990061;28;20167;-81
2021/03/29 06:04:11;;;;;;;7.05;4.68;;;17.80;53.50;;;;;;5020465;28;20717;-81
2021/03/29 06:06:36;;;;;;;7.03;4.95;;;17.80;53.40;;;;;;5008011;28;20305;-82
2021/03/29 06:09:02;;;;;;;7.00;4.85;;;17.90;53.40;;;;;;5024296;28;20213;-82
2021/03/29 06:11:35;;;;;;;5.43;4.32;;;17.90;53.30;;;;;;5021968;28;20162;-82
2021/03/29 06:14:15;;;;;;;6.22;4.80;;;17.90;53.30;;;;;;5018721;28;20183;-82
2021/03/29 06:17:05;;;;;;;7.13;4.72;;;17.90;53.30;;;;;;5022039;28;20242;-82
2021/03/29 06:19:53;;;;;;;6.68;4.95;;;18.00;53.10;;;;;;5027620;28;20189;-82
2021/03/29 06:22:25;;;;;;;7.22;4.45;;;17.90;53.10;;;;;;5045195;28;20486;-82
2021/03/29 06:25:00;;;;;;;5.60;4.40;;;18.00;53.00;;;;;;5017364;28;20640;-84
2021/03/29 06:55:57;;;;;;;6.70;4.45;;;18.10;52.60;;;;;;4968081;26;20239;-80
2021/03/29 06:58:26;;;;;;;5.90;4.88;;;18.10;52.60;;;;;;4982582;28;20148;-82
2021/03/29 07:00:59;;;;;;;7.82;4.55;;;18.10;52.60;;;;;;4988202;28;20160;-83
2021/03/29 07:03:28;;;;;;;5.13;3.83;;;18.10;52.70;;;;;;4969045;28;20168;-82
2021/03/29 07:05:53;;;;;;;5.93;4.65;;;18.20;52.30;;;;;;4954259;28;20192;-81
2021/03/29 07:08:20;;;;;;;6.10;4.03;;;18.20;52.50;;;;;;4972170;28;20203;-82
2021/03/29 07:10:46;;;;;;;6.30;4.50;;;18.20;52.40;;;;;;4952991;28;20205;-81
2021/03/29 07:13:13;;;;;;;6.07;4.60;;;18.10;52.60;;;;;;4951357;28;20651;-82
2021/03/29 07:15:40;;;;;;;6.72;4.50;;;18.00;52.80;;;;;;4969782;28;20193;-82
2021/03/29 07:18:07;;;;;;;5.68;4.30;;;18.10;52.60;;;;;;4951172;28;20179;-82
2021/03/29 07:20:37;;;;;;;6.00;4.72;;;18.20;52.30;;;;;;4983228;28;20153;-81
2021/03/29 07:23:05;;;;;;;5.43;4.53;;;18.20;52.30;;;;;;4985485;28;20161;-81
2021/03/29 07:26:17;;;;;;;5.38;4.25;;;18.10;52.50;;;;;;4968821;28;20189;-81
2021/03/29 07:28:30;;;;;;;6.07;4.13;;;18.10;52.50;;;;;;4977517;28;20196;-81
2021/03/29 07:31:01;;;;;;;4.95;3.78;;;18.10;52.50;;;;;;4967941;28;20198;-80
2021/03/29 07:34:01;;;;;;;4.97;4.03;;;18.10;52.40;;;;;;4962891;28;20232;-81
2021/03/29 07:37:06;;;;;;;5.78;4.10;;;18.10;52.30;;;;;;4999903;28;20192;-80
2021/03/29 07:42:33;;;;;;;4.78;4.15;;;18.10;52.10;;;;;;4974990;28;20180;-79
2021/03/29 07:45:32;;;;;;;5.53;4.15;;;18.20;52.10;;;;;;4990328;28;20211;-80
2021/03/29 07:48:10;;;;;;;4.70;3.60;;;18.10;52.00;;;;;;5006455;28;20269;-79
2021/03/29 07:53:45;;;;;;;4.55;3.80;;;18.20;51.80;;;;;;4945220;29;20555;-83
2021/03/29 07:56:33;;;;;;;4.43;3.88;;;18.30;51.80;;;;;;4928995;29;20641;-79
2021/03/29 07:59:01;;;;;;;6.00;3.95;;;18.30;51.70;;;;;;4929548;29;20363;-80
2021/03/29 08:01:34;;;;;;;4.60;3.83;;;18.30;51.60;;;;;;4911365;29;20257;-79
2021/03/29 08:04:01;;;;;;;5.05;3.83;;;18.40;51.50;;;;;;4900095;29;20201;-80
2021/03/29 08:06:41;;;;;;;6.25;3.70;;;18.40;51.60;;;;;;4912373;29;20158;-79
2021/03/29 08:09:10;;;;;;;4.65;3.92;;;18.30;51.70;;;;;;4914138;29;20194;-79
2021/03/29 08:11:56;;;;;;;5.75;3.80;;;18.30;51.80;;;;;;4914398;29;20269;-79
2021/03/29 08:14:41;;;;;;;6.93;4.60;;;18.20;51.90;;;;;;4900784;29;20205;-79
2021/03/29 08:17:52;;;;;;;5.15;3.58;;;18.30;51.90;;;;;;4930837;29;20251;-79
2021/03/29 08:20:43;;;;;;;6.57;3.88;;;18.30;51.70;;;;;;4945258;29;20608;-78
2021/03/29 08:23:30;;;;;;;6.40;3.72;;;18.30;51.70;;;;;;4928510;29;20170;-79
2021/03/29 08:26:16;;;;;;;5.75;3.80;;;18.30;51.50;;;;;;4931237;29;20201;-80
2021/03/29 08:29:11;;;;;;;6.88;3.80;;;18.30;51.60;;;;;;4915102;29;20506;-78
2021/03/29 08:32:15;;;;;;;5.13;3.70;;;18.30;51.70;;;;;;4968393;28;20187;-79
2021/03/29 08:34:52;;;;;;;7.97;4.03;;;18.30;51.60;;;;;;5007752;28;20152;-79
2021/03/29 08:37:31;;;;;;;6.18;3.60;;;18.30;51.50;;;;;;4957801;28;20172;-79
2021/03/29 08:40:07;;;;;;;4.80;3.40;;;18.30;51.40;;;;;;4985286;28;20157;-78
2021/03/29 08:42:34;;;;;;;6.18;3.85;;;18.40;51.20;;;;;;4953161;28;20161;-79
2021/03/29 08:45:04;;;;;;;4.30;3.22;;;18.40;51.30;;;;;;4985078;28;20230;-79
2021/03/29 08:47:29;;;;;;;5.75;3.58;;;18.30;51.30;;;;;;4969203;28;20654;-79
2021/03/29 08:49:59;;;;;;;5.80;3.80;;;18.30;51.40;;;;;;4969863;28;20173;-80
2021/03/29 08:52:38;;;;;;;5.10;3.55;;;18.30;51.50;;;;;;4986541;28;20153;-79
2021/03/29 08:55:06;;;;;;;5.28;3.60;;;18.30;51.50;;;;;;4988901;28;20215;-80
2021/03/29 08:57:41;;;;;;;4.30;3.40;;;18.30;51.70;;;;;;4972274;28;20182;-81
2021/03/29 09:00:13;;;;;;;6.50;3.88;;;18.30;51.40;;;;;;4981978;28;20164;-81
2021/03/29 09:02:48;;;;;;;5.88;3.03;;;18.30;51.50;;;;;;4970158;28;20270;-80
2021/03/29 09:05:16;;;;;;;7.22;3.72;;;18.40;51.40;;;;;;4969494;28;20188;-81
2021/03/29 09:07:45;;;;;;;5.55;3.35;;;18.40;51.40;;;;;;4967664;28;20161;-79
2021/03/29 09:10:33;;;;;;;4.93;3.10;;;18.40;51.40;;;;;;4953588;28;20505;-79
2021/03/29 09:13:04;;;;;;;6.43;3.30;;;18.40;51.30;;;;;;4970703;28;20192;-80
2021/03/29 09:15:41;;;;;;;5.07;3.30;;;18.40;51.40;;;;;;4954450;28;20203;-80
2021/03/29 09:18:13;;;;;;;4.97;3.80;;;18.40;51.40;;;;;;4969732;28;20157;-79
2021/03/29 09:20:43;;;;;;;5.80;3.55;;;18.40;51.40;;;;;;4985804;28;20171;-80
2021/03/29 09:23:19;;;;;;;12.02;3.97;;;18.40;51.60;;;;;;4954280;28;20228;-80
2021/03/29 09:25:51;;;;;;;6.65;3.65;;;18.40;51.60;;;;;;4969354;28;20200;-81
2021/03/29 09:28:34;;;;;;;7.72;3.63;;;18.30;51.70;;;;;;4954280;28;20168;-80
2021/03/29 09:31:19;;;;;;;5.10;3.58;;;18.30;51.70;;;;;;4986680;28;20183;-80
2021/03/29 09:33:46;;;;;;;5.30;3.45;;;18.40;51.70;;;;;;4986989;28;20157;-80
2021/03/29 09:36:14;;;;;;;4.05;3.45;;;18.30;51.60;;;;;;4952881;28;20621;-79
2021/03/29 09:38:49;;;;;;;4.32;3.45;;;18.30;51.90;;;;;;4985396;28;20562;-80
2021/03/29 09:41:33;;;;;;;4.05;3.20;;;18.30;52.00;;;;;;4989958;28;20157;-80
2021/03/29 09:44:10;;;;;;;8.90;3.78;;;18.30;52.00;;;;;;4979537;28;20184;-82
2021/03/29 09:46:35;;;;;;;5.50;3.30;;;18.30;51.80;;;;;;4981342;28;20213;-82
2021/03/29 09:49:07;;;;;;;5.40;3.15;;;18.40;51.70;;;;;;4940251;28;20504;-81
2021/03/29 09:51:35;;;;;;;6.18;3.47;;;18.40;51.60;;;;;;4951023;29;20173;-82
2021/03/29 09:54:27;;;;;;;4.85;3.20;;;18.40;51.60;;;;;;4957938;28;20219;-81
2021/03/29 09:56:55;;;;;;;5.10;3.53;;;18.40;51.60;;;;;;5025534;28;20227;-81
2021/03/29 09:59:43;;;;;;;4.63;3.20;;;18.40;51.70;;;;;;5008589;28;20164;-80
2021/03/29 10:02:16;;;;;;;4.50;3.45;;;18.40;51.70;;;;;;5008156;28;20149;-80
2021/03/29 10:04:45;;;;;;;5.28;3.45;;;18.20;51.80;;;;;;4991546;28;20204;-82
2021/03/29 10:07:15;;;;;;;4.18;3.20;;;18.30;51.80;;;;;;5007319;28;20615;-81
2021/03/29 10:10:14;;;;;;;6.20;3.15;;;18.40;51.80;;;;;;4976134;28;20156;-80
2021/03/29 10:13:07;;;;;;;3.83;3.17;;;18.30;51.90;;;;;;4992209;28;20163;-79
2021/03/29 10:15:40;;;;;;;6.50;3.38;;;18.40;51.80;;;;;;4986572;28;20176;-79
2021/03/29 10:18:32;;;;;;;3.95;2.90;;;18.30;51.90;;;;;;4960669;28;20180;-79
2021/03/29 10:21:03;;;;;;;3.83;3.15;;;18.30;51.90;;;;;;4976639;28;20152;-80
2021/03/29 10:23:31;;;;;;;4.70;3.40;;;18.40;51.80;;;;;;4960203;28;20160;-81
2021/03/29 10:26:20;;;;;;;4.72;3.30;;;18.40;51.80;;;;;;4977325;28;20208;-80
2021/03/29 10:29:03;;;;;;;4.93;3.33;;;18.30;51.90;;;;;;4977006;28;20188;-78
2021/03/29 10:31:31;;;;;;;5.53;3.30;;;18.30;51.90;;;;;;4991117;28;20182;-79
2021/03/29 10:34:03;;;;;;;5.18;3.42;;;18.40;51.80;;;;;;4975466;28;20160;-79
2021/03/29 10:36:31;;;;;;;6.50;3.45;;;18.40;51.70;;;;;;4975234;28;20164;-79
2021/03/29 10:38:59;;;;;;;4.65;3.03;;;18.40;51.70;;;;;;4975725;28;20179;-80
2021/03/29 10:41:29;;;;;;;5.35;3.22;;;18.40;51.70;;;;;;4991029;28;20185;-80
2021/03/29 10:43:55;;;;;;;5.03;2.92;;;18.40;51.70;;;;;;4976925;28;20198;-80
2021/03/29 10:46:25;;;;;;;6.00;3.40;;;18.40;51.70;;;;;;4991324;28;20220;-80
2021/03/29 10:48:52;;;;;;;5.25;3.08;;;18.50;51.70;;;;;;4959381;28;20195;-80
2021/03/29 10:51:18;;;;;;;6.82;3.22;;;18.40;51.90;;;;;;4974584;28;20235;-80
2021/03/29 10:53:44;;;;;;;3.95;3.00;;;18.40;52.00;;;;;;4974361;28;20180;-81
2021/03/29 10:56:14;;;;;;;6.65;3.55;;;18.40;52.10;;;;;;4975830;28;20172;-79
2021/03/29 10:58:42;;;;;;;3.72;3.00;;;18.40;52.10;;;;;;4976907;28;20187;-79
2021/03/29 11:01:08;;;;;;;4.53;3.10;;;18.40;52.00;;;;;;4976320;28;20160;-78
2021/03/29 11:03:35;;;;;;;5.25;3.20;;;18.40;51.90;;;;;;4992461;28;20214;-78
2021/03/29 11:06:06;;;;;;;4.53;2.70;;;18.40;52.00;;;;;;4975508;28;20212;-78
2021/03/29 11:08:33;;;;;;;4.57;3.03;;;18.40;52.00;;;;;;4975493;28;20168;-78
2021/03/29 11:11:02;;;;;;;4.00;3.15;;;18.40;52.10;;;;;;4976431;28;20168;-78
2021/03/29 11:13:29;;;;;;;4.32;3.28;;;18.40;52.10;;;;;;4992006;28;20152;-78
2021/03/29 11:15:56;;;;;;;3.92;3.00;;;18.40;52.10;;;;;;5010218;28;20199;-78
2021/03/29 11:18:27;;;;;;;4.50;3.10;;;18.40;52.20;;;;;;4960442;28;20175;-78
2021/03/29 11:20:55;;;;;;;6.97;3.03;;;18.40;52.20;;;;;;4975691;28;20179;-79
2021/03/29 11:23:25;;;;;;;3.80;3.00;;;18.40;52.20;;;;;;4959860;28;20176;-78
2021/03/29 11:25:54;;;;;;;5.45;2.72;;;18.40;52.20;;;;;;4992978;28;20271;-79
2021/03/29 11:28:23;;;;;;;3.00;2.70;;;18.40;52.20;;;;;;4991392;28;20184;-78
2021/03/29 11:30:58;;;;;;;4.25;3.30;;;18.40;52.10;;;;;;4975748;28;20163;-78
2021/03/29 11:33:33;;;;;;;4.05;3.05;;;18.40;52.00;;;;;;4975255;28;20163;-79
2021/03/29 11:36:00;;;;;;;3.15;2.78;;;18.40;52.70;;;;;;4975542;28;20168;-79
2021/03/29 11:38:26;;;;;;;3.70;3.10;;;18.40;52.00;;;;;;4975443;28;20164;-78
2021/03/29 11:40:52;;;;;;;3.83;3.10;;;18.40;52.10;;;;;;4975963;28;20527;-79
2021/03/29 11:43:19;;;;;;;4.53;2.85;;;18.40;52.20;;;;;;4959457;28;20246;-78
2021/03/29 11:45:47;;;;;;;4.25;2.90;;;18.40;52.10;;;;;;4975433;28;20207;-78
2021/03/29 11:48:16;;;;;;;3.90;3.25;;;18.40;52.10;;;;;;4992054;28;20170;-81
2021/03/29 11:50:45;;;;;;;3.47;3.13;;;18.40;52.10;;;;;;4976449;28;20152;-78
2021/03/29 11:53:11;;;;;;;4.57;2.80;;;18.40;52.00;;;;;;4991527;28;20164;-79
2021/03/29 11:55:38;;;;;;;3.30;2.80;;;18.40;52.10;;;;;;4990245;28;20226;-78
2021/03/29 11:58:06;;;;;;;4.00;3.20;;;18.40;52.30;;;;;;4975006;28;20538;-79
2021/03/29 12:06:01;;;;;;;4.22;2.70;;;18.40;52.30;;;;;;5008340;28;20310;-79
2021/03/29 12:08:38;;;;;;;4.10;3.00;;;18.30;52.40;;;;;;4975178;28;20191;-79
2021/03/29 12:13:50;;;;;;;3.50;2.88;;;18.40;52.30;;;;;;4993492;28;20199;-79
2021/03/29 12:16:19;;;;;;;3.78;3.20;;;18.40;52.30;;;;;;4990410;28;20186;-79
2021/03/29 12:18:50;;;;;;;2.92;2.60;;;18.40;52.30;;;;;;4974544;28;20763;-79
2021/03/29 12:21:30;;;;;;;3.30;2.90;;;18.40;52.30;;;;;;4973956;28;20177;-79
2021/03/29 12:24:08;;;;;;;3.55;2.88;;;18.40;52.30;;;;;;4990186;28;20220;-79
2021/03/29 12:26:34;;;;;;;5.65;2.70;;;18.40;52.40;;;;;;4969032;28;20212;-80
2021/03/29 12:29:02;;;;;;;4.30;3.28;;;18.40;52.40;;;;;;4969853;28;20184;-78
2021/03/29 12:31:30;;;;;;;5.03;3.13;;;18.40;52.50;;;;;;4970639;28;20312;-80
2021/03/29 12:33:56;;;;;;;8.20;2.83;;;18.40;52.50;;;;;;4972809;28;20175;-79
2021/03/29 12:36:30;;;;;;;4.60;2.72;;;18.40;52.50;;;;;;4972574;28;20655;-79
2021/03/29 12:41:52;;;;;;;8.57;2.72;;;18.40;52.40;;;;;;4897113;29;20182;-78
2021/03/29 12:44:26;;;;;;;5.35;2.70;;;18.40;52.50;;;;;;4909142;29;20190;-79
2021/03/29 12:47:03;;;;;;;4.97;3.05;;;18.40;52.40;;;;;;4912005;29;20194;-79
2021/03/29 12:49:41;;;;;;;5.75;3.30;;;18.40;52.50;;;;;;4924023;29;20213;-78
2021/03/29 12:52:08;;;;;;;4.80;2.78;;;18.40;52.50;;;;;;4896074;29;20256;-79
2021/03/29 12:54:37;;;;;;;7.38;2.78;;;18.40;52.40;;;;;;4912250;29;20226;-77
2021/03/29 12:57:04;;;;;;;3.28;2.78;;;18.50;52.40;;;;;;4912757;29;20208;-78
2021/03/29 12:59:31;;;;;;;5.90;2.92;;;18.50;52.50;;;;;;4912370;29;20246;-78
2021/03/29 13:01:57;;;;;;;3.65;2.75;;;18.40;52.50;;;;;;4912448;29;20162;-78
2021/03/29 13:09:36;;;;;;;3.40;3.00;;;18.50;52.60;;;;;;4927344;29;20166;-79
2021/03/29 13:12:11;;;;;;;6.10;2.45;;;18.50;52.50;;;;;;4927207;29;20190;-79
2021/03/29 13:15:11;;;;;;;5.00;2.50;;;18.50;52.60;;;;;;4919979;29;20179;-79
2021/03/29 13:17:41;;;;;;;4.80;2.65;;;18.50;52.30;;;;;;4910249;28;20175;-79
2021/03/29 13:20:15;;;;;;;4.30;2.50;;;18.60;52.40;;;;;;4953964;28;20168;-80
2021/03/29 13:22:46;;;;;;;3.67;2.50;;;18.50;52.40;;;;;;4983626;28;20176;-80
2021/03/29 13:25:15;;;;;;;2.50;2.30;;;18.60;52.40;;;;;;4984611;28;20298;-79
2021/03/29 13:27:41;;;;;;;4.05;2.40;;;18.60;52.30;;;;;;4967708;28;20187;-81
2021/03/29 13:30:29;;;;;;;3.65;2.35;;;18.50;52.40;;;;;;4952805;28;20640;-83
2021/03/29 13:33:25;;;;;;;3.42;2.58;;;18.50;52.50;;;;;;4957674;28;20191;-83
2021/03/29 13:36:27;;;;;;;4.97;2.70;;;18.60;52.40;;;;;;4990890;28;20156;-81
2021/03/29 13:38:52;;;;;;;5.03;2.70;;;18.60;52.30;;;;;;4987094;28;20235;-78
2021/03/29 13:41:19;;;;;;;3.40;2.75;;;18.60;52.40;;;;;;4973086;28;20171;-78
2021/03/29 13:43:45;;;;;;;3.17;2.30;;;18.50;52.50;;;;;;4998499;28;20160;-79
2021/03/29 13:46:11;;;;;;;4.32;2.50;;;18.50;52.50;;;;;;4945011;28;20622;-80
2021/03/29 13:48:47;;;;;;;3.10;2.80;;;18.60;52.40;;;;;;4986439;28;20180;-80
2021/03/29 13:51:14;;;;;;;2.85;2.42;;;18.60;52.30;;;;;;4969193;28;20183;-79
2021/03/29 13:54:07;;;;;;;3.78;2.80;;;18.60;52.40;;;;;;4977628;28;20244;-80
2021/03/29 13:56:28;;;;;;;3.75;2.47;;;18.60;52.30;;;;;;4976879;28;20196;-80